Terminal Aerodrome Forecast
Issued by NWS Tuscon, AZ

Current Version | Previous Version | Text Only | Print | Product List | Glossary On
Versions: 1 2 3 4 5 6 7 8 9 10 11 12 13 14
000
FTUS45 KTWC 041720
TAFTUS
TAF
KTUS 041720Z 0418/0518 23012G22KT P6SM VCSH BKN050 BKN080
     FM042000 23012G22KT P6SM SCT050 BKN080
     FM050200 18007KT P6SM VCSH BKN050 OVC080
     FM050700 16005KT P6SM SCT080
     FM051700 20007KT P6SM SCT080=

USA.gov is the U.S. government's official web portal to all federal, state and local government web resources and services.